Terminal Aerodrome Forecast
Issued by NWS

Home | Current Version | Previous Version | Text Only | Print | Product List | Glossary On
Versions: 1 2 3 4 5 6 7 8 9 10 11 12 13 14 15 16
000
FTUS43 KAPX 300520
TAFTVC
TAF
KTVC 300520Z 3006/3106 23005KT P6SM SCT090 WS008/28030KT
     FM301300 27013G25KT P6SM SKC
     FM302000 28012G20KT P6SM SCT040
     FM302300 31010G18KT P6SM SCT050=

USA.gov is the U.S. government's official web portal to all federal, state and local government web resources and services.